sensor_id;sensor_type;location;lat;lon;timestamp;temperature;humidity
43099;DHT22;28715;51.988;6.020;2023-06-19T00:01:54;23.70;72.00
43099;DHT22;28715;51.988;6.020;2023-06-19T00:04:20;23.70;72.10
43099;DHT22;28715;51.988;6.020;2023-06-19T00:06:46;23.70;72.10
43099;DHT22;28715;51.988;6.020;2023-06-19T00:09:11;23.70;72.10
43099;DHT22;28715;51.988;6.020;2023-06-19T00:11:37;23.70;72.30
43099;DHT22;28715;51.988;6.020;2023-06-19T00:14:02;23.80;72.50
43099;DHT22;28715;51.988;6.020;2023-06-19T00:16:28;23.80;72.40
43099;DHT22;28715;51.988;6.020;2023-06-19T00:18:54;23.90;72.70
43099;DHT22;28715;51.988;6.020;2023-06-19T00:21:23;23.90;72.70
43099;DHT22;28715;51.988;6.020;2023-06-19T00:23:53;23.90;72.60
43099;DHT22;28715;51.988;6.020;2023-06-19T00:26:18;24.00;72.90
43099;DHT22;28715;51.988;6.020;2023-06-19T00:28:56;24.00;73.00
43099;DHT22;28715;51.988;6.020;2023-06-19T00:31:22;24.00;73.00
43099;DHT22;28715;51.988;6.020;2023-06-19T00:33:47;24.00;73.30
43099;DHT22;28715;51.988;6.020;2023-06-19T00:36:14;24.00;73.20
43099;DHT22;28715;51.988;6.020;2023-06-19T00:38:40;24.10;73.20
43099;DHT22;28715;51.988;6.020;2023-06-19T00:41:06;24.10;73.40
43099;DHT22;28715;51.988;6.020;2023-06-19T00:43:32;24.10;73.60
43099;DHT22;28715;51.988;6.020;2023-06-19T00:45:58;24.10;73.80
43099;DHT22;28715;51.988;6.020;2023-06-19T00:48:24;24.10;73.90
43099;DHT22;28715;51.988;6.020;2023-06-19T00:50:50;24.10;74.10
43099;DHT22;28715;51.988;6.020;2023-06-19T00:53:17;24.10;74.40
43099;DHT22;28715;51.988;6.020;2023-06-19T00:55:43;24.10;74.70
43099;DHT22;28715;51.988;6.020;2023-06-19T00:58:10;24.10;75.00
43099;DHT22;28715;51.988;6.020;2023-06-19T01:00:35;24.10;75.20
43099;DHT22;28715;51.988;6.020;2023-06-19T01:03:01;24.10;75.30
43099;DHT22;28715;51.988;6.020;2023-06-19T01:05:26;24.10;75.60
43099;DHT22;28715;51.988;6.020;2023-06-19T01:10:43;24.10;75.60
43099;DHT22;28715;51.988;6.020;2023-06-19T01:13:13;24.10;75.70
43099;DHT22;28715;51.988;6.020;2023-06-19T01:15:42;24.10;75.60
43099;DHT22;28715;51.988;6.020;2023-06-19T01:18:09;24.10;75.70
43099;DHT22;28715;51.988;6.020;2023-06-19T01:20:38;24.10;75.80
43099;DHT22;28715;51.988;6.020;2023-06-19T01:23:11;24.10;75.80
43099;DHT22;28715;51.988;6.020;2023-06-19T01:25:40;24.10;76.00
43099;DHT22;28715;51.988;6.020;2023-06-19T01:28:13;24.10;76.00
43099;DHT22;28715;51.988;6.020;2023-06-19T01:30:44;24.10;76.00
43099;DHT22;28715;51.988;6.020;2023-06-19T01:33:15;24.10;76.30
43099;DHT22;28715;51.988;6.020;2023-06-19T01:35:43;24.10;76.10
43099;DHT22;28715;51.988;6.020;2023-06-19T01:38:13;24.10;76.00
43099;DHT22;28715;51.988;6.020;2023-06-19T01:40:43;24.10;75.80
43099;DHT22;28715;51.988;6.020;2023-06-19T01:43:13;24.10;75.70
43099;DHT22;28715;51.988;6.020;2023-06-19T01:45:39;24.10;75.60
43099;DHT22;28715;51.988;6.020;2023-06-19T01:48:11;24.10;75.40
43099;DHT22;28715;51.988;6.020;2023-06-19T01:50:47;24.10;75.60
43099;DHT22;28715;51.988;6.020;2023-06-19T01:53:14;24.10;75.50
43099;DHT22;28715;51.988;6.020;2023-06-19T01:55:40;24.00;75.50
43099;DHT22;28715;51.988;6.020;2023-06-19T01:58:08;24.00;75.50
43099;DHT22;28715;51.988;6.020;2023-06-19T02:00:43;23.90;75.70
43099;DHT22;28715;51.988;6.020;2023-06-19T02:03:08;23.90;75.90
43099;DHT22;28715;51.988;6.020;2023-06-19T02:05:40;23.90;76.00
43099;DHT22;28715;51.988;6.020;2023-06-19T02:08:06;23.90;76.20
43099;DHT22;28715;51.988;6.020;2023-06-19T02:10:32;23.80;76.20
43099;DHT22;28715;51.988;6.020;2023-06-19T02:12:58;23.80;76.20
43099;DHT22;28715;51.988;6.020;2023-06-19T02:15:25;23.80;76.40
43099;DHT22;28715;51.988;6.020;2023-06-19T02:17:51;23.80;76.60
43099;DHT22;28715;51.988;6.020;2023-06-19T02:20:20;23.70;76.90
43099;DHT22;28715;51.988;6.020;2023-06-19T02:22:46;23.60;77.40
43099;DHT22;28715;51.988;6.020;2023-06-19T02:25:12;23.50;78.00
43099;DHT22;28715;51.988;6.020;2023-06-19T02:27:37;23.40;78.40
43099;DHT22;28715;51.988;6.020;2023-06-19T02:30:03;23.30;78.70
43099;DHT22;28715;51.988;6.020;2023-06-19T02:32:30;23.30;79.00
43099;DHT22;28715;51.988;6.020;2023-06-19T02:34:56;23.20;79.20
43099;DHT22;28715;51.988;6.020;2023-06-19T02:37:21;23.20;79.40
43099;DHT22;28715;51.988;6.020;2023-06-19T02:39:47;23.10;79.60
43099;DHT22;28715;51.988;6.020;2023-06-19T02:42:15;23.10;79.90
43099;DHT22;28715;51.988;6.020;2023-06-19T02:44:40;23.00;80.30
43099;DHT22;28715;51.988;6.020;2023-06-19T02:47:07;23.00;80.90
43099;DHT22;28715;51.988;6.020;2023-06-19T02:49:33;22.90;81.50
43099;DHT22;28715;51.988;6.020;2023-06-19T02:51:59;22.90;82.00
43099;DHT22;28715;51.988;6.020;2023-06-19T02:54:24;22.80;82.20
43099;DHT22;28715;51.988;6.020;2023-06-19T02:56:50;22.70;82.40
43099;DHT22;28715;51.988;6.020;2023-06-19T02:59:21;22.70;82.80
43099;DHT22;28715;51.988;6.020;2023-06-19T03:01:47;22.50;83.20
43099;DHT22;28715;51.988;6.020;2023-06-19T03:04:13;22.50;83.50
43099;DHT22;28715;51.988;6.020;2023-06-19T03:06:38;22.40;83.80
43099;DHT22;28715;51.988;6.020;2023-06-19T03:09:06;22.40;84.10
43099;DHT22;28715;51.988;6.020;2023-06-19T03:11:40;22.40;85.00
43099;DHT22;28715;51.988;6.020;2023-06-19T03:14:07;22.30;84.40
43099;DHT22;28715;51.988;6.020;2023-06-19T03:16:34;22.40;84.60
43099;DHT22;28715;51.988;6.020;2023-06-19T03:19:00;22.30;84.70
43099;DHT22;28715;51.988;6.020;2023-06-19T03:21:26;22.30;84.90
43099;DHT22;28715;51.988;6.020;2023-06-19T03:23:51;22.30;85.10
43099;DHT22;28715;51.988;6.020;2023-06-19T03:26:19;22.30;85.10
43099;DHT22;28715;51.988;6.020;2023-06-19T03:28:45;22.20;85.20
43099;DHT22;28715;51.988;6.020;2023-06-19T03:31:12;22.20;85.60
43099;DHT22;28715;51.988;6.020;2023-06-19T03:33:55;22.10;86.00
43099;DHT22;28715;51.988;6.020;2023-06-19T03:36:21;22.10;86.30
43099;DHT22;28715;51.988;6.020;2023-06-19T03:38:48;22.00;86.70
43099;DHT22;28715;51.988;6.020;2023-06-19T03:41:14;22.00;87.10
43099;DHT22;28715;51.988;6.020;2023-06-19T03:43:39;22.00;87.30
43099;DHT22;28715;51.988;6.020;2023-06-19T03:46:05;22.00;87.60
43099;DHT22;28715;51.988;6.020;2023-06-19T03:48:31;21.90;87.70
43099;DHT22;28715;51.988;6.020;2023-06-19T03:50:56;22.00;87.70
43099;DHT22;28715;51.988;6.020;2023-06-19T03:53:22;21.90;87.70
43099;DHT22;28715;51.988;6.020;2023-06-19T03:55:47;22.00;87.90
43099;DHT22;28715;51.988;6.020;2023-06-19T03:58:13;22.00;88.00
43099;DHT22;28715;51.988;6.020;2023-06-19T04:00:39;21.90;88.00
43099;DHT22;28715;51.988;6.020;2023-06-19T04:03:04;21.90;88.20
43099;DHT22;28715;51.988;6.020;2023-06-19T04:05:30;21.90;88.30
43099;DHT22;28715;51.988;6.020;2023-06-19T04:07:55;21.90;88.40
43099;DHT22;28715;51.988;6.020;2023-06-19T04:10:24;21.90;88.50
43099;DHT22;28715;51.988;6.020;2023-06-19T04:12:49;21.90;88.70
43099;DHT22;28715;51.988;6.020;2023-06-19T04:15:15;21.90;89.60
43099;DHT22;28715;51.988;6.020;2023-06-19T04:17:40;21.90;89.00
43099;DHT22;28715;51.988;6.020;2023-06-19T04:20:06;21.90;89.10
43099;DHT22;28715;51.988;6.020;2023-06-19T04:22:39;21.90;89.30
43099;DHT22;28715;51.988;6.020;2023-06-19T04:25:09;21.90;89.90
43099;DHT22;28715;51.988;6.020;2023-06-19T04:27:35;21.90;89.30
43099;DHT22;28715;51.988;6.020;2023-06-19T04:30:05;21.90;89.30
43099;DHT22;28715;51.988;6.020;2023-06-19T04:32:37;22.00;89.50
43099;DHT22;28715;51.988;6.020;2023-06-19T04:35:12;22.00;89.60
43099;DHT22;28715;51.988;6.020;2023-06-19T04:37:37;21.90;89.90
43099;DHT22;28715;51.988;6.020;2023-06-19T04:40:03;21.90;90.00
43099;DHT22;28715;51.988;6.020;2023-06-19T04:42:29;21.90;90.00
43099;DHT22;28715;51.988;6.020;2023-06-19T04:44:57;22.00;90.10
43099;DHT22;28715;51.988;6.020;2023-06-19T04:47:33;21.90;90.10
43099;DHT22;28715;51.988;6.020;2023-06-19T04:49:59;22.00;90.20
43099;DHT22;28715;51.988;6.020;2023-06-19T04:52:25;21.90;90.30
43099;DHT22;28715;51.988;6.020;2023-06-19T04:54:57;22.00;90.30
43099;DHT22;28715;51.988;6.020;2023-06-19T04:57:26;22.00;90.40
43099;DHT22;28715;51.988;6.020;2023-06-19T04:59:52;22.00;90.50
43099;DHT22;28715;51.988;6.020;2023-06-19T05:02:17;22.00;90.50
43099;DHT22;28715;51.988;6.020;2023-06-19T05:04:43;22.00;90.60
43099;DHT22;28715;51.988;6.020;2023-06-19T05:07:09;22.00;90.60
43099;DHT22;28715;51.988;6.020;2023-06-19T05:09:36;22.00;90.60
43099;DHT22;28715;51.988;6.020;2023-06-19T05:12:04;22.00;90.70
43099;DHT22;28715;51.988;6.020;2023-06-19T05:14:30;22.00;90.70
43099;DHT22;28715;51.988;6.020;2023-06-19T05:16:56;22.00;90.80
43099;DHT22;28715;51.988;6.020;2023-06-19T05:19:21;21.90;90.80
43099;DHT22;28715;51.988;6.020;2023-06-19T05:21:47;21.90;91.00
43099;DHT22;28715;51.988;6.020;2023-06-19T05:24:15;21.90;91.10
43099;DHT22;28715;51.988;6.020;2023-06-19T05:26:46;21.90;91.10
43099;DHT22;28715;51.988;6.020;2023-06-19T05:29:12;21.90;91.10
43099;DHT22;28715;51.988;6.020;2023-06-19T05:31:38;22.00;91.10
43099;DHT22;28715;51.988;6.020;2023-06-19T05:34:06;22.00;91.20
43099;DHT22;28715;51.988;6.020;2023-06-19T05:36:35;22.00;91.30
43099;DHT22;28715;51.988;6.020;2023-06-19T05:39:00;21.90;91.40
43099;DHT22;28715;51.988;6.020;2023-06-19T05:41:26;21.90;91.70
43099;DHT22;28715;51.988;6.020;2023-06-19T05:43:52;21.90;92.00
43099;DHT22;28715;51.988;6.020;2023-06-19T05:46:17;21.80;92.20
43099;DHT22;28715;51.988;6.020;2023-06-19T05:48:43;21.80;92.40
43099;DHT22;28715;51.988;6.020;2023-06-19T05:51:08;21.80;92.40
43099;DHT22;28715;51.988;6.020;2023-06-19T05:53:36;21.80;92.30
43099;DHT22;28715;51.988;6.020;2023-06-19T05:56:04;21.80;92.30
43099;DHT22;28715;51.988;6.020;2023-06-19T05:58:31;21.90;92.30
43099;DHT22;28715;51.988;6.020;2023-06-19T06:00:56;22.00;92.20
43099;DHT22;28715;51.988;6.020;2023-06-19T06:03:26;22.10;92.10
43099;DHT22;28715;51.988;6.020;2023-06-19T06:05:55;22.10;92.00
43099;DHT22;28715;51.988;6.020;2023-06-19T06:08:28;22.20;91.80
43099;DHT22;28715;51.988;6.020;2023-06-19T06:10:54;22.30;91.60
43099;DHT22;28715;51.988;6.020;2023-06-19T06:13:19;22.30;91.50
43099;DHT22;28715;51.988;6.020;2023-06-19T06:15:45;22.30;91.50
43099;DHT22;28715;51.988;6.020;2023-06-19T06:18:13;22.40;91.50
43099;DHT22;28715;51.988;6.020;2023-06-19T06:20:39;22.40;91.50
43099;DHT22;28715;51.988;6.020;2023-06-19T06:23:04;22.50;91.30
43099;DHT22;28715;51.988;6.020;2023-06-19T06:25:30;22.50;91.20
43099;DHT22;28715;51.988;6.020;2023-06-19T06:27:56;22.50;91.20
43099;DHT22;28715;51.988;6.020;2023-06-19T06:30:21;22.50;91.30
43099;DHT22;28715;51.988;6.020;2023-06-19T06:32:48;22.50;91.20
43099;DHT22;28715;51.988;6.020;2023-06-19T06:35:13;22.40;91.20
43099;DHT22;28715;51.988;6.020;2023-06-19T06:37:42;22.40;91.30
43099;DHT22;28715;51.988;6.020;2023-06-19T06:40:09;22.40;91.40
43099;DHT22;28715;51.988;6.020;2023-06-19T06:42:36;22.40;91.40
43099;DHT22;28715;51.988;6.020;2023-06-19T06:45:03;22.40;91.40
43099;DHT22;28715;51.988;6.020;2023-06-19T06:47:28;22.40;91.50
43099;DHT22;28715;51.988;6.020;2023-06-19T06:49:54;22.40;91.40
43099;DHT22;28715;51.988;6.020;2023-06-19T06:52:24;22.40;91.30
43099;DHT22;28715;51.988;6.020;2023-06-19T06:54:50;22.40;91.30
43099;DHT22;28715;51.988;6.020;2023-06-19T06:57:16;22.40;91.40
43099;DHT22;28715;51.988;6.020;2023-06-19T06:59:41;22.40;91.40
43099;DHT22;28715;51.988;6.020;2023-06-19T07:02:07;22.40;91.30
43099;DHT22;28715;51.988;6.020;2023-06-19T07:04:33;22.40;91.10
43099;DHT22;28715;51.988;6.020;2023-06-19T07:06:58;22.40;91.20
43099;DHT22;28715;51.988;6.020;2023-06-19T07:09:24;22.40;91.30
43099;DHT22;28715;51.988;6.020;2023-06-19T07:11:53;22.40;91.20
43099;DHT22;28715;51.988;6.020;2023-06-19T07:14:18;22.50;91.00
43099;DHT22;28715;51.988;6.020;2023-06-19T07:16:47;22.40;90.90
43099;DHT22;28715;51.988;6.020;2023-06-19T07:19:13;22.50;90.90
43099;DHT22;28715;51.988;6.020;2023-06-19T07:21:39;22.50;91.10
43099;DHT22;28715;51.988;6.020;2023-06-19T07:24:05;22.60;91.10
43099;DHT22;28715;51.988;6.020;2023-06-19T07:26:31;22.60;90.50
43099;DHT22;28715;51.988;6.020;2023-06-19T07:28:57;22.70;90.60
43099;DHT22;28715;51.988;6.020;2023-06-19T07:31:22;22.80;90.50
43099;DHT22;28715;51.988;6.020;2023-06-19T07:33:50;22.80;90.20
43099;DHT22;28715;51.988;6.020;2023-06-19T07:36:16;22.90;90.10
43099;DHT22;28715;51.988;6.020;2023-06-19T07:38:42;22.90;90.00
43099;DHT22;28715;51.988;6.020;2023-06-19T07:41:09;23.00;90.00
43099;DHT22;28715;51.988;6.020;2023-06-19T07:43:35;23.00;89.80
43099;DHT22;28715;51.988;6.020;2023-06-19T07:46:01;22.90;88.30
43099;DHT22;28715;51.988;6.020;2023-06-19T07:48:27;22.90;87.90
43099;DHT22;28715;51.988;6.020;2023-06-19T07:50:53;22.90;88.00
43099;DHT22;28715;51.988;6.020;2023-06-19T07:53:22;23.30;88.30
43099;DHT22;28715;51.988;6.020;2023-06-19T07:55:47;23.70;86.60
43099;DHT22;28715;51.988;6.020;2023-06-19T07:58:13;24.20;84.80
43099;DHT22;28715;51.988;6.020;2023-06-19T08:00:39;24.60;83.00
43099;DHT22;28715;51.988;6.020;2023-06-19T08:03:05;24.90;82.00
43099;DHT22;28715;51.988;6.020;2023-06-19T08:05:30;24.90;80.10
43099;DHT22;28715;51.988;6.020;2023-06-19T08:07:56;24.90;79.30
43099;DHT22;28715;51.988;6.020;2023-06-19T08:10:23;24.90;79.60
43099;DHT22;28715;51.988;6.020;2023-06-19T08:12:49;25.00;78.70
43099;DHT22;28715;51.988;6.020;2023-06-19T08:15:16;25.20;77.70
43099;DHT22;28715;51.988;6.020;2023-06-19T08:17:42;25.40;77.20
43099;DHT22;28715;51.988;6.020;2023-06-19T08:20:08;25.70;77.20
43099;DHT22;28715;51.988;6.020;2023-06-19T08:22:35;25.90;75.90
43099;DHT22;28715;51.988;6.020;2023-06-19T08:25:00;26.00;75.30
43099;DHT22;28715;51.988;6.020;2023-06-19T08:27:26;26.00;75.20
43099;DHT22;28715;51.988;6.020;2023-06-19T08:29:51;25.80;75.50
43099;DHT22;28715;51.988;6.020;2023-06-19T08:32:20;25.80;76.60
43099;DHT22;28715;51.988;6.020;2023-06-19T08:34:45;25.90;75.50
43099;DHT22;28715;51.988;6.020;2023-06-19T08:37:11;26.00;75.30
43099;DHT22;28715;51.988;6.020;2023-06-19T08:39:36;26.10;74.70
43099;DHT22;28715;51.988;6.020;2023-06-19T08:42:09;26.10;74.10
43099;DHT22;28715;51.988;6.020;2023-06-19T08:44:37;26.10;74.20
43099;DHT22;28715;51.988;6.020;2023-06-19T08:47:04;26.20;74.30
43099;DHT22;28715;51.988;6.020;2023-06-19T08:49:30;26.40;74.40
43099;DHT22;28715;51.988;6.020;2023-06-19T08:51:56;26.70;75.00
43099;DHT22;28715;51.988;6.020;2023-06-19T08:54:25;26.90;73.60
43099;DHT22;28715;51.988;6.020;2023-06-19T08:56:53;27.10;72.60
43099;DHT22;28715;51.988;6.020;2023-06-19T08:59:21;27.20;72.70
43099;DHT22;28715;51.988;6.020;2023-06-19T09:01:51;27.30;72.40
43099;DHT22;28715;51.988;6.020;2023-06-19T09:04:19;27.50;72.30
43099;DHT22;28715;51.988;6.020;2023-06-19T09:06:56;27.50;72.50
43099;DHT22;28715;51.988;6.020;2023-06-19T09:09:23;27.60;72.70
43099;DHT22;28715;51.988;6.020;2023-06-19T09:12:05;27.70;72.20
43099;DHT22;28715;51.988;6.020;2023-06-19T09:16:57;27.80;71.50
43099;DHT22;28715;51.988;6.020;2023-06-19T09:19:23;27.80;71.20
43099;DHT22;28715;51.988;6.020;2023-06-19T09:21:52;27.60;71.30
43099;DHT22;28715;51.988;6.020;2023-06-19T09:24:20;27.50;71.70
43099;DHT22;28715;51.988;6.020;2023-06-19T09:26:46;27.50;72.00
43099;DHT22;28715;51.988;6.020;2023-06-19T09:29:15;27.50;72.80
43099;DHT22;28715;51.988;6.020;2023-06-19T09:31:44;27.50;72.30
43099;DHT22;28715;51.988;6.020;2023-06-19T09:34:10;27.60;72.90
43099;DHT22;28715;51.988;6.020;2023-06-19T09:36:36;27.70;72.10
43099;DHT22;28715;51.988;6.020;2023-06-19T09:39:04;27.90;72.00
43099;DHT22;28715;51.988;6.020;2023-06-19T09:41:31;28.10;71.60
43099;DHT22;28715;51.988;6.020;2023-06-19T09:44:01;28.10;71.30
43099;DHT22;28715;51.988;6.020;2023-06-19T09:46:30;28.20;71.80
43099;DHT22;28715;51.988;6.020;2023-06-19T09:49:00;28.10;71.20
43099;DHT22;28715;51.988;6.020;2023-06-19T09:51:41;28.10;71.80
43099;DHT22;28715;51.988;6.020;2023-06-19T09:54:08;28.10;71.90
43099;DHT22;28715;51.988;6.020;2023-06-19T09:56:35;28.10;71.50
43099;DHT22;28715;51.988;6.020;2023-06-19T09:59:01;28.10;71.10
43099;DHT22;28715;51.988;6.020;2023-06-19T10:01:29;28.10;71.00
43099;DHT22;28715;51.988;6.020;2023-06-19T10:04:07;28.10;71.30
43099;DHT22;28715;51.988;6.020;2023-06-19T10:06:41;28.10;70.60
43099;DHT22;28715;51.988;6.020;2023-06-19T10:09:09;28.10;71.00
43099;DHT22;28715;51.988;6.020;2023-06-19T10:12:13;28.20;71.40
43099;DHT22;28715;51.988;6.020;2023-06-19T10:14:46;28.10;71.30
43099;DHT22;28715;51.988;6.020;2023-06-19T10:17:29;28.10;71.30
43099;DHT22;28715;51.988;6.020;2023-06-19T10:19:57;28.20;71.40
43099;DHT22;28715;51.988;6.020;2023-06-19T10:22:23;28.30;71.60
43099;DHT22;28715;51.988;6.020;2023-06-19T10:24:54;28.40;70.90
43099;DHT22;28715;51.988;6.020;2023-06-19T10:27:26;28.40;70.90
43099;DHT22;28715;51.988;6.020;2023-06-19T10:30:19;28.40;70.50
43099;DHT22;28715;51.988;6.020;2023-06-19T10:32:46;28.40;69.50
43099;DHT22;28715;51.988;6.020;2023-06-19T10:35:12;28.40;69.90
43099;DHT22;28715;51.988;6.020;2023-06-19T10:37:39;28.40;69.70
43099;DHT22;28715;51.988;6.020;2023-06-19T10:40:08;28.50;70.40
43099;DHT22;28715;51.988;6.020;2023-06-19T10:42:41;28.50;68.70
43099;DHT22;28715;51.988;6.020;2023-06-19T10:45:09;28.50;68.30
43099;DHT22;28715;51.988;6.020;2023-06-19T10:47:39;28.40;69.20
43099;DHT22;28715;51.988;6.020;2023-06-19T10:50:36;28.40;69.40
43099;DHT22;28715;51.988;6.020;2023-06-19T10:53:03;28.50;68.90
43099;DHT22;28715;51.988;6.020;2023-06-19T10:55:29;28.50;69.00
43099;DHT22;28715;51.988;6.020;2023-06-19T10:57:55;28.60;69.30
43099;DHT22;28715;51.988;6.020;2023-06-19T11:00:36;28.70;69.70
43099;DHT22;28715;51.988;6.020;2023-06-19T11:03:07;28.80;68.40
43099;DHT22;28715;51.988;6.020;2023-06-19T11:05:33;28.80;68.30
43099;DHT22;28715;51.988;6.020;2023-06-19T11:07:59;28.70;69.00
43099;DHT22;28715;51.988;6.020;2023-06-19T11:10:29;28.70;68.90
43099;DHT22;28715;51.988;6.020;2023-06-19T11:12:55;28.80;69.50
43099;DHT22;28715;51.988;6.020;2023-06-19T11:15:44;28.90;69.40
43099;DHT22;28715;51.988;6.020;2023-06-19T11:18:10;29.20;68.20
43099;DHT22;28715;51.988;6.020;2023-06-19T11:20:52;29.20;67.60
43099;DHT22;28715;51.988;6.020;2023-06-19T11:23:30;29.20;68.30
43099;DHT22;28715;51.988;6.020;2023-06-19T11:26:06;29.30;67.10
43099;DHT22;28715;51.988;6.020;2023-06-19T11:28:35;29.20;67.70
43099;DHT22;28715;51.988;6.020;2023-06-19T11:31:02;29.30;67.50
43099;DHT22;28715;51.988;6.020;2023-06-19T11:33:44;29.40;66.90
43099;DHT22;28715;51.988;6.020;2023-06-19T11:36:09;29.40;67.10
43099;DHT22;28715;51.988;6.020;2023-06-19T11:41:48;29.60;67.20
43099;DHT22;28715;51.988;6.020;2023-06-19T11:44:17;29.60;66.20
43099;DHT22;28715;51.988;6.020;2023-06-19T11:46:45;29.50;65.70
43099;DHT22;28715;51.988;6.020;2023-06-19T11:49:18;29.50;65.90
43099;DHT22;28715;51.988;6.020;2023-06-19T11:51:44;29.50;66.10
43099;DHT22;28715;51.988;6.020;2023-06-19T11:54:14;29.60;67.20
43099;DHT22;28715;51.988;6.020;2023-06-19T11:56:56;29.60;67.00
43099;DHT22;28715;51.988;6.020;2023-06-19T11:59:21;29.70;65.60
43099;DHT22;28715;51.988;6.020;2023-06-19T12:01:55;29.80;64.90
43099;DHT22;28715;51.988;6.020;2023-06-19T12:04:53;30.00;65.90
43099;DHT22;28715;51.988;6.020;2023-06-19T12:07:19;30.00;63.80
43099;DHT22;28715;51.988;6.020;2023-06-19T12:09:45;30.00;65.10
43099;DHT22;28715;51.988;6.020;2023-06-19T12:12:10;29.90;63.20
43099;DHT22;28715;51.988;6.020;2023-06-19T12:14:36;29.80;63.60
43099;DHT22;28715;51.988;6.020;2023-06-19T12:17:02;29.80;63.00
43099;DHT22;28715;51.988;6.020;2023-06-19T12:19:28;29.80;63.60
43099;DHT22;28715;51.988;6.020;2023-06-19T12:21:54;29.70;62.90
43099;DHT22;28715;51.988;6.020;2023-06-19T12:24:20;29.60;64.30
43099;DHT22;28715;51.988;6.020;2023-06-19T12:26:45;29.60;64.10
43099;DHT22;28715;51.988;6.020;2023-06-19T12:29:14;29.40;63.80
43099;DHT22;28715;51.988;6.020;2023-06-19T12:31:40;29.30;63.40
43099;DHT22;28715;51.988;6.020;2023-06-19T12:34:05;29.10;63.80
43099;DHT22;28715;51.988;6.020;2023-06-19T12:36:31;29.10;64.20
43099;DHT22;28715;51.988;6.020;2023-06-19T12:38:59;29.30;64.20
43099;DHT22;28715;51.988;6.020;2023-06-19T12:41:25;29.40;63.20
43099;DHT22;28715;51.988;6.020;2023-06-19T12:43:50;29.40;62.70
43099;DHT22;28715;51.988;6.020;2023-06-19T12:46:16;29.40;62.40
43099;DHT22;28715;51.988;6.020;2023-06-19T12:48:44;29.40;63.10
43099;DHT22;28715;51.988;6.020;2023-06-19T12:51:13;29.50;62.90
43099;DHT22;28715;51.988;6.020;2023-06-19T12:53:38;29.60;62.30
43099;DHT22;28715;51.988;6.020;2023-06-19T12:56:07;29.70;61.90
43099;DHT22;28715;51.988;6.020;2023-06-19T12:58:33;29.70;61.90
43099;DHT22;28715;51.988;6.020;2023-06-19T13:01:03;29.80;62.40
43099;DHT22;28715;51.988;6.020;2023-06-19T13:03:29;29.90;62.30
43099;DHT22;28715;51.988;6.020;2023-06-19T13:05:54;29.90;61.60
43099;DHT22;28715;51.988;6.020;2023-06-19T13:08:22;30.00;61.60
43099;DHT22;28715;51.988;6.020;2023-06-19T13:10:48;30.00;61.60
43099;DHT22;28715;51.988;6.020;2023-06-19T13:13:13;30.00;61.60
43099;DHT22;28715;51.988;6.020;2023-06-19T13:15:39;30.10;61.90
43099;DHT22;28715;51.988;6.020;2023-06-19T13:18:05;30.10;61.40
43099;DHT22;28715;51.988;6.020;2023-06-19T13:20:30;30.20;61.30
43099;DHT22;28715;51.988;6.020;2023-06-19T13:23:00;30.20;60.30
43099;DHT22;28715;51.988;6.020;2023-06-19T13:25:25;30.10;60.40
43099;DHT22;28715;51.988;6.020;2023-06-19T13:27:51;30.00;60.60
43099;DHT22;28715;51.988;6.020;2023-06-19T13:30:16;30.10;61.10
43099;DHT22;28715;51.988;6.020;2023-06-19T13:32:45;30.20;60.00
43099;DHT22;28715;51.988;6.020;2023-06-19T13:35:13;30.30;60.90
43099;DHT22;28715;51.988;6.020;2023-06-19T13:37:39;30.40;61.90
43099;DHT22;28715;51.988;6.020;2023-06-19T13:40:06;30.40;60.10
43099;DHT22;28715;51.988;6.020;2023-06-19T13:42:38;30.50;60.00
43099;DHT22;28715;51.988;6.020;2023-06-19T13:45:06;30.50;60.30
43099;DHT22;28715;51.988;6.020;2023-06-19T13:47:32;30.50;59.20
43099;DHT22;28715;51.988;6.020;2023-06-19T13:50:06;30.60;58.60
43099;DHT22;28715;51.988;6.020;2023-06-19T13:52:37;30.50;59.30
43099;DHT22;28715;51.988;6.020;2023-06-19T13:55:03;30.50;59.30
43099;DHT22;28715;51.988;6.020;2023-06-19T13:57:29;30.50;59.60
43099;DHT22;28715;51.988;6.020;2023-06-19T13:59:55;30.50;59.00
43099;DHT22;28715;51.988;6.020;2023-06-19T14:02:20;30.60;58.80
43099;DHT22;28715;51.988;6.020;2023-06-19T14:04:46;30.60;58.80
43099;DHT22;28715;51.988;6.020;2023-06-19T14:07:14;30.60;58.90
43099;DHT22;28715;51.988;6.020;2023-06-19T14:09:42;30.60;57.80
43099;DHT22;28715;51.988;6.020;2023-06-19T14:12:10;30.70;58.20
43099;DHT22;28715;51.988;6.020;2023-06-19T14:14:36;30.70;58.30
43099;DHT22;28715;51.988;6.020;2023-06-19T14:17:02;30.80;58.60
43099;DHT22;28715;51.988;6.020;2023-06-19T14:19:27;30.90;59.60
43099;DHT22;28715;51.988;6.020;2023-06-19T14:21:54;30.90;59.70
43099;DHT22;28715;51.988;6.020;2023-06-19T14:24:19;31.00;58.30
43099;DHT22;28715;51.988;6.020;2023-06-19T14:26:45;30.90;58.50
43099;DHT22;28715;51.988;6.020;2023-06-19T14:29:10;30.90;58.90
43099;DHT22;28715;51.988;6.020;2023-06-19T14:31:39;30.90;57.90
43099;DHT22;28715;51.988;6.020;2023-06-19T14:34:04;30.80;57.60
43099;DHT22;28715;51.988;6.020;2023-06-19T14:36:30;30.80;57.70
43099;DHT22;28715;51.988;6.020;2023-06-19T14:38:58;30.80;57.80
43099;DHT22;28715;51.988;6.020;2023-06-19T14:41:26;30.80;57.40
43099;DHT22;28715;51.988;6.020;2023-06-19T14:43:52;30.80;58.10
43099;DHT22;28715;51.988;6.020;2023-06-19T14:46:18;30.80;58.50
43099;DHT22;28715;51.988;6.020;2023-06-19T14:48:50;30.80;58.80
43099;DHT22;28715;51.988;6.020;2023-06-19T14:51:19;30.80;58.50
43099;DHT22;28715;51.988;6.020;2023-06-19T14:53:44;30.90;58.80
43099;DHT22;28715;51.988;6.020;2023-06-19T14:56:10;31.00;58.60
43099;DHT22;28715;51.988;6.020;2023-06-19T14:58:36;31.00;59.00
43099;DHT22;28715;51.988;6.020;2023-06-19T15:01:01;31.00;57.90
43099;DHT22;28715;51.988;6.020;2023-06-19T15:03:27;30.90;58.60
43099;DHT22;28715;51.988;6.020;2023-06-19T15:05:53;30.90;59.60
43099;DHT22;28715;51.988;6.020;2023-06-19T15:08:19;30.80;59.90
43099;DHT22;28715;51.988;6.020;2023-06-19T15:10:49;30.80;59.60
43099;DHT22;28715;51.988;6.020;2023-06-19T15:13:14;30.80;61.20
43099;DHT22;28715;51.988;6.020;2023-06-19T15:15:47;30.80;59.50
43099;DHT22;28715;51.988;6.020;2023-06-19T15:18:13;30.90;59.70
43099;DHT22;28715;51.988;6.020;2023-06-19T15:20:39;30.80;59.00
43099;DHT22;28715;51.988;6.020;2023-06-19T15:23:07;30.70;58.80
43099;DHT22;28715;51.988;6.020;2023-06-19T15:25:33;30.70;60.20
43099;DHT22;28715;51.988;6.020;2023-06-19T15:27:59;30.60;59.30
43099;DHT22;28715;51.988;6.020;2023-06-19T15:30:24;30.60;59.20
43099;DHT22;28715;51.988;6.020;2023-06-19T15:32:50;30.50;60.70
43099;DHT22;28715;51.988;6.020;2023-06-19T15:35:16;30.40;59.60
43099;DHT22;28715;51.988;6.020;2023-06-19T15:37:41;30.30;59.60
43099;DHT22;28715;51.988;6.020;2023-06-19T15:40:07;30.20;59.40
43099;DHT22;28715;51.988;6.020;2023-06-19T15:42:33;30.20;59.80